Sakaide Maru — 3EYR6 — position and weather

sailwx.info

Track history (hours):
 
Tides and Currents Weather Stations Pressure Air Temp Water Temp Dewpoint Dewpoint Depression Visibility Wind Speed Wind Dir Waves Ship Positions

Sakaide Maru

Last reported at 2017-Mar-30 13:19 UTC. Time now 2017-Apr-23 05:34 UTC.
Position N 33°58' E 134°57'.
Warning: this ship's position is 23 days out of date.

Length 255 m; draft 7.3 m.

Type: Ship. MMSI: 354898000.

Date/timePositionNaut miles runAvg speedWind from/ knotsBaromVisibWave heightAir tempDewpointWater temp
2017-Mar-30 13:19N 33°58' E 134°57'1012.4
2017-Mar-30 12:33N 34°08' E 134°58'1410.8
2017-Mar-30 11:16N 34°22' E 134°60'912.9
2017-Mar-30 10:33N 34°30' E 135°05'7 7.2
2017-Mar-30 09:33N 34°37' E 135°02'1413.8
2017-Mar-30 08:33N 34°32' E 134°46'  
2017-Mar-23 03:25N 34°35' E 134°52'8 9.3
2017-Mar-23 02:32N 34°37' E 135°02'7 7.1
2017-Mar-23 01:33N 34°33' E 135°09'1010.3
2017-Mar-23 00:33N 34°24' E 135°04'1110.8
2017-Mar-22 23:33N 34°14' E 134°59'8 7.8
2017-Mar-22 22:33N 34°06' E 134°59'7 7.1
2017-Mar-22 21:30N 33°58' E 134°59'  
Track history (hours):
 
Tides and Currents Weather Stations Pressure Air Temp Water Temp Dewpoint Dewpoint Depression Visibility Wind Speed Wind Dir Waves Ship Positions

Sakaide Maru

Last reported at 2017-Mar-30 13:19 UTC. Time now 2017-Apr-23 05:34 UTC.
Position N 33°58' E 134°57'.
Warning: this ship's position is 23 days out of date.

Length 255 m; draft 7.3 m.

Type: Ship. MMSI: 354898000.

Date/timePositionNaut miles runAvg speedWind from/ knotsBaromVisibWave heightAir tempDewpointWater temp
2017-Mar-30 13:19N 33°58' E 134°57'1012.4
2017-Mar-30 12:33N 34°08' E 134°58'1410.8
2017-Mar-30 11:16N 34°22' E 134°60'912.9
2017-Mar-30 10:33N 34°30' E 135°05'7 7.2
2017-Mar-30 09:33N 34°37' E 135°02'1413.8
2017-Mar-30 08:33N 34°32' E 134°46'  
2017-Mar-23 03:25N 34°35' E 134°52'8 9.3
2017-Mar-23 02:32N 34°37' E 135°02'7 7.1
2017-Mar-23 01:33N 34°33' E 135°09'1010.3
2017-Mar-23 00:33N 34°24' E 135°04'1110.8
2017-Mar-22 23:33N 34°14' E 134°59'8 7.8
2017-Mar-22 22:33N 34°06' E 134°59'7 7.1
2017-Mar-22 21:30N 33°58' E 134°59'  

Dump ship's entire track history